createdAt,value
2018-03-22T00:01:20.711Z,101590.38
2018-03-22T00:03:50.623Z,101589.30
2018-03-22T00:06:19.747Z,101585.34
2018-03-22T00:08:48.922Z,101585.88
2018-03-22T00:11:18.799Z,101585.21
2018-03-22T00:13:48.679Z,101584.86
2018-03-22T00:16:17.791Z,101578.66
2018-03-22T00:18:47.676Z,101582.64
2018-03-22T00:21:16.762Z,101575.81
2018-03-22T00:23:45.899Z,101575.45
2018-03-22T00:26:15.770Z,101579.34
2018-03-22T00:28:44.908Z,101565.22
2018-03-22T00:31:14.002Z,101567.25
2018-03-22T00:33:44.198Z,101561.03
2018-03-22T00:36:13.290Z,101560.70
2018-03-22T00:38:44.126Z,101568.72
2018-03-22T00:41:13.222Z,101570.84
2018-03-22T00:43:44.862Z,101560.91
2018-03-22T00:46:13.986Z,101565.06
2018-03-22T00:48:44.199Z,101566.61
2018-03-22T00:51:13.293Z,101565.47
2018-03-22T00:53:43.656Z,101565.61
2018-03-22T00:56:13.512Z,101558.85
2018-03-22T00:58:44.161Z,101552.97
2018-03-22T01:01:13.283Z,101540.41
2018-03-22T01:03:44.195Z,101538.95
2018-03-22T01:06:13.329Z,101530.91
2018-03-22T01:08:43.474Z,101524.81
2018-03-22T01:11:12.594Z,101532.20
2018-03-22T01:13:41.695Z,101532.13
2018-03-22T01:16:10.856Z,101526.50
2018-03-22T01:18:40.729Z,101523.52
2018-03-22T01:21:09.845Z,101526.92
2018-03-22T01:23:39.728Z,101520.44
2018-03-22T01:26:08.930Z,101519.94
2018-03-22T01:28:38.077Z,101507.73
2018-03-22T01:31:07.173Z,101500.38
2018-03-22T01:33:36.278Z,101495.36
2018-03-22T01:36:05.393Z,101494.36
2018-03-22T01:38:34.494Z,101496.43
2018-03-22T01:41:03.606Z,101492.27
2018-03-22T01:43:32.707Z,101491.04
2018-03-22T01:46:01.827Z,101491.36
2018-03-22T01:48:31.697Z,101494.69
2018-03-22T01:51:00.794Z,101498.83
2018-03-22T01:53:29.917Z,101499.31
2018-03-22T01:55:59.019Z,101496.73
2018-03-22T01:58:28.147Z,101491.44
2018-03-22T02:00:57.306Z,101472.47
2018-03-22T02:03:26.429Z,101470.11
2018-03-22T02:05:56.293Z,101470.48
2018-03-22T02:08:25.423Z,101461.45
2018-03-22T02:10:55.282Z,101462.12
2018-03-22T02:13:24.406Z,101454.19
2018-03-22T02:15:53.511Z,101454.74
2018-03-22T02:18:22.625Z,101445.00
2018-03-22T02:20:51.732Z,101446.10
2018-03-22T02:23:21.590Z,101438.21
2018-03-22T02:25:50.698Z,101442.81
2018-03-22T02:28:19.790Z,101447.85
2018-03-22T02:30:48.907Z,101449.21
2018-03-22T02:33:18.004Z,101449.43
2018-03-22T02:35:47.123Z,101446.67
2018-03-22T02:38:16.218Z,101447.02
2018-03-22T02:40:46.098Z,101434.22
2018-03-22T02:43:15.956Z,101435.95
2018-03-22T02:45:45.845Z,101435.09
2018-03-22T02:48:14.928Z,101435.07
2018-03-22T02:50:44.049Z,101434.40
2018-03-22T02:53:13.926Z,101436.84
2018-03-22T02:55:44.372Z,101435.72
2018-03-22T02:58:13.476Z,101432.95
2018-03-22T03:00:44.413Z,101435.18
2018-03-22T03:03:13.514Z,101426.05
2018-03-22T03:05:44.329Z,101426.27
2018-03-22T03:08:13.458Z,101429.42
2018-03-22T03:10:44.362Z,101415.03
2018-03-22T03:13:13.477Z,101414.39
2018-03-22T03:15:43.574Z,101413.26
2018-03-22T03:18:12.672Z,101406.52
2018-03-22T03:20:42.720Z,101396.09
2018-03-22T03:23:12.593Z,101393.68
2018-03-22T03:25:41.697Z,101386.05
2018-03-22T03:28:11.568Z,101384.09
2018-03-22T03:30:40.684Z,101379.87
2018-03-22T03:33:09.778Z,101376.40
2018-03-22T03:35:38.892Z,101373.20
2018-03-22T03:38:08.053Z,101370.45
2018-03-22T03:40:37.166Z,101361.46
2018-03-22T03:43:06.288Z,101358.41
2018-03-22T03:45:36.152Z,101349.18
2018-03-22T03:48:06.041Z,101345.37
2018-03-22T03:50:35.121Z,101352.34
2018-03-22T03:53:04.239Z,101348.31
2018-03-22T03:55:33.351Z,101345.24
2018-03-22T03:58:03.241Z,101345.12
2018-03-22T04:00:32.348Z,101343.22
2018-03-22T04:03:01.438Z,101342.41
2018-03-22T04:05:31.344Z,101339.84
2018-03-22T04:08:00.448Z,101340.92
2018-03-22T04:10:30.307Z,101337.76
2018-03-22T04:12:59.435Z,101337.56
2018-03-22T04:15:28.530Z,101336.30
2018-03-22T04:17:57.644Z,101334.30
2018-03-22T04:20:26.757Z,101338.80
2018-03-22T04:22:55.866Z,101324.06
2018-03-22T04:25:25.734Z,101328.46
2018-03-22T04:27:54.853Z,101332.70
2018-03-22T04:30:23.956Z,101330.19
2018-03-22T04:32:53.067Z,101322.11
2018-03-22T04:35:22.924Z,101317.81
2018-03-22T04:37:52.041Z,101308.16
2018-03-22T04:40:21.903Z,101303.70
2018-03-22T04:42:50.999Z,101310.97
2018-03-22T04:45:20.101Z,101311.14
2018-03-22T04:47:49.201Z,101312.81
2018-03-22T04:50:18.309Z,101305.28
2018-03-22T04:52:47.408Z,101307.88
2018-03-22T04:55:16.533Z,101298.64
2018-03-22T04:57:45.628Z,101295.20
2018-03-22T05:00:14.754Z,101275.45
2018-03-22T05:02:44.614Z,101273.63
2018-03-22T05:05:13.737Z,101268.91
2018-03-22T05:07:44.550Z,101261.67
2018-03-22T05:10:13.675Z,101262.44
2018-03-22T05:12:44.598Z,101257.77
2018-03-22T05:15:13.718Z,101257.45
2018-03-22T05:17:44.536Z,101256.19
2018-03-22T05:20:13.645Z,101267.44
2018-03-22T05:22:44.551Z,101265.64
2018-03-22T05:25:13.661Z,101263.63
2018-03-22T05:27:43.760Z,101275.16
2018-03-22T05:30:12.848Z,101267.89
2018-03-22T05:32:42.022Z,101270.36
2018-03-22T05:35:11.080Z,101273.48
2018-03-22T05:37:40.218Z,101273.56
2018-03-22T05:40:10.097Z,101264.07
2018-03-22T05:42:39.216Z,101266.33
2018-03-22T05:45:09.089Z,101260.70
2018-03-22T05:47:38.214Z,101251.82
2018-03-22T05:50:07.315Z,101248.63
2018-03-22T05:52:36.454Z,101246.08
2018-03-22T05:55:05.554Z,101237.65
2018-03-22T05:57:34.675Z,101229.47
2018-03-22T06:00:03.803Z,101225.28
2018-03-22T06:02:32.902Z,101230.69
2018-03-22T06:05:02.797Z,101221.94
2018-03-22T06:07:31.890Z,101219.39
2018-03-22T06:10:01.003Z,101219.00
2018-03-22T06:12:30.122Z,101225.61
2018-03-22T06:14:59.263Z,101225.06
2018-03-22T06:17:28.352Z,101222.16
2018-03-22T06:19:57.457Z,101218.44
2018-03-22T06:22:26.583Z,101220.86
2018-03-22T06:24:55.695Z,101213.73
2018-03-22T06:27:25.601Z,101215.80
2018-03-22T06:29:54.690Z,101217.34
2018-03-22T06:32:24.614Z,101213.39
2018-03-22T06:34:54.488Z,101211.58
2018-03-22T06:37:23.634Z,101202.89
2018-03-22T06:39:53.501Z,101201.80
2018-03-22T06:42:22.646Z,101197.17
2018-03-22T06:44:52.507Z,101190.06
2018-03-22T06:47:21.618Z,101194.16
2018-03-22T06:49:50.709Z,101194.11
2018-03-22T06:52:19.828Z,101193.14
2018-03-22T06:54:49.708Z,101195.04
2018-03-22T06:57:18.844Z,101195.20
2018-03-22T06:59:47.958Z,101194.47
2018-03-22T07:02:17.876Z,101198.59
2018-03-22T07:04:47.743Z,101192.68
2018-03-22T07:07:17.634Z,101188.08
2018-03-22T07:09:46.772Z,101189.73
2018-03-22T07:12:15.862Z,101185.14
2018-03-22T07:14:44.958Z,101188.41
2018-03-22T07:17:15.578Z,101186.72
2018-03-22T07:19:44.686Z,101188.41
2018-03-22T07:22:13.790Z,101179.93
2018-03-22T07:24:43.984Z,101187.21
2018-03-22T07:27:13.079Z,101181.95
2018-03-22T07:29:42.178Z,101183.35
2018-03-22T07:32:11.270Z,101173.47
2018-03-22T07:34:40.382Z,101176.69
2018-03-22T07:37:09.486Z,101179.36
2018-03-22T07:39:38.621Z,101176.73
2018-03-22T07:42:07.738Z,101174.58
2018-03-22T07:44:40.793Z,101178.17
2018-03-22T07:47:10.664Z,101182.37
2018-03-22T07:49:39.767Z,101178.88
2018-03-22T07:52:08.879Z,101182.55
2018-03-22T07:54:37.993Z,101177.75
2018-03-22T07:57:07.889Z,101174.26
2018-03-22T07:59:36.991Z,101173.18
2018-03-22T08:02:06.105Z,101164.64
2018-03-22T08:04:35.962Z,101165.52
2018-03-22T08:07:05.073Z,101161.00
2018-03-22T08:09:34.181Z,101158.53
2018-03-22T08:12:03.286Z,101160.77
2018-03-22T08:14:32.382Z,101162.06
2018-03-22T08:17:02.287Z,101162.00
2018-03-22T08:19:31.362Z,101160.12
2018-03-22T08:22:00.481Z,101155.84
2018-03-22T08:24:29.582Z,101158.09
2018-03-22T08:26:58.771Z,101156.05
2018-03-22T08:29:27.877Z,101147.78
2018-03-22T08:31:56.962Z,101141.94
2018-03-22T08:34:26.656Z,101133.09
2018-03-22T08:36:55.759Z,101133.52
2018-03-22T08:39:24.854Z,101117.89
2018-03-22T08:41:53.974Z,101120.12
2018-03-22T08:44:23.097Z,101116.00
2018-03-22T08:46:52.954Z,101124.61
2018-03-22T08:49:22.064Z,101100.03
2018-03-22T08:51:51.173Z,101104.78
2018-03-22T08:54:20.265Z,101099.42
2018-03-22T08:56:49.378Z,101099.42
2018-03-22T08:59:19.244Z,101081.80
2018-03-22T09:01:48.361Z,101083.61
2018-03-22T09:04:17.456Z,101082.47
2018-03-22T09:06:46.562Z,101082.71
2018-03-22T09:09:15.645Z,101073.08
2018-03-22T09:11:44.782Z,101080.82
2018-03-22T09:14:14.709Z,101080.04
2018-03-22T09:16:44.207Z,101076.86
2018-03-22T09:19:14.063Z,101080.40
2018-03-22T09:21:45.024Z,101080.92
2018-03-22T09:24:14.129Z,101069.48
2018-03-22T09:26:50.623Z,101073.81
2018-03-22T09:29:19.724Z,101074.73
2018-03-22T09:31:48.823Z,101075.38
2018-03-22T09:34:18.710Z,101071.55
2018-03-22T09:36:48.050Z,101069.52
2018-03-22T09:39:17.194Z,101068.16
2018-03-22T09:41:46.290Z,101065.73
2018-03-22T09:44:15.415Z,101063.94
2018-03-22T09:46:45.269Z,101065.22
2018-03-22T09:49:14.401Z,101068.56
2018-03-22T09:51:44.998Z,101064.46
2018-03-22T09:54:14.115Z,101067.68
2018-03-22T09:56:44.318Z,101069.06
2018-03-22T09:59:13.426Z,101062.92
2018-03-22T10:01:42.503Z,101056.86
2018-03-22T10:04:11.630Z,101060.03
2018-03-22T10:06:40.733Z,101063.09
2018-03-22T10:09:09.852Z,101057.02
2018-03-22T10:11:39.718Z,101059.39
2018-03-22T10:14:08.844Z,101064.17
2018-03-22T10:16:37.956Z,101060.17
2018-03-22T10:19:07.809Z,101067.91
2018-03-22T10:21:36.929Z,101058.89
2018-03-22T10:24:06.040Z,101056.52
2018-03-22T10:26:35.157Z,101050.63
2018-03-22T10:29:05.034Z,101042.39
2018-03-22T10:31:34.275Z,101035.16
2018-03-22T10:34:03.350Z,101037.83
2018-03-22T10:36:32.467Z,101029.92
2018-03-22T10:39:02.330Z,101022.12
2018-03-22T10:41:31.466Z,101017.45
2018-03-22T10:44:00.551Z,101000.06
2018-03-22T10:46:29.664Z,100994.61
2018-03-22T10:48:59.533Z,100992.66
2018-03-22T10:51:28.643Z,100978.22
2018-03-22T10:53:57.804Z,100962.59
2018-03-22T10:56:26.858Z,100970.48
2018-03-22T10:58:55.978Z,100954.67
2018-03-22T11:01:30.513Z,100945.73
2018-03-22T11:03:59.705Z,100939.02
2018-03-22T11:06:28.799Z,100934.93
2018-03-22T11:08:57.928Z,100924.05
2018-03-22T11:11:27.024Z,100933.39
2018-03-22T11:13:56.157Z,100923.20
2018-03-22T11:16:25.242Z,100920.28
2018-03-22T11:18:54.363Z,100909.30
2018-03-22T11:21:24.222Z,100907.84
2018-03-22T11:23:53.353Z,100896.75
2018-03-22T11:26:22.462Z,100895.87
2018-03-22T11:28:51.567Z,100888.17
2018-03-22T11:31:21.476Z,100888.20
2018-03-22T11:33:51.347Z,100884.72
2018-03-22T11:36:20.463Z,100880.06
2018-03-22T11:38:49.582Z,100885.66
2018-03-22T11:41:18.731Z,100877.20
2018-03-22T11:43:47.818Z,100888.09
2018-03-22T11:46:17.694Z,100876.50
2018-03-22T11:48:46.818Z,100885.42
2018-03-22T11:51:15.934Z,100871.89
2018-03-22T11:53:45.105Z,100872.55
2018-03-22T11:56:14.161Z,100865.88
2018-03-22T11:58:43.411Z,100870.48
2018-03-22T12:01:12.504Z,100863.91
2018-03-22T12:03:41.647Z,100856.62
2018-03-22T12:06:11.527Z,100851.91
2018-03-22T12:08:40.674Z,100839.69
2018-03-22T12:11:09.766Z,100834.78
2018-03-22T12:13:38.908Z,100832.23
2018-03-22T12:16:08.009Z,100824.76
2018-03-22T12:18:37.098Z,100819.23
2018-03-22T12:21:06.217Z,100813.92
2018-03-22T12:23:35.305Z,100810.91
2018-03-22T12:26:04.444Z,100806.17
2018-03-22T12:28:33.538Z,100814.55
2018-03-22T12:31:02.655Z,100799.22
2018-03-22T12:33:32.537Z,100797.09
2018-03-22T12:36:01.657Z,100786.73
2018-03-22T12:38:30.765Z,100795.63
2018-03-22T12:41:00.655Z,100790.69
2018-03-22T12:43:29.774Z,100785.30
2018-03-22T12:45:58.891Z,100782.27
2018-03-22T12:48:28.004Z,100780.22
2018-03-22T12:50:57.096Z,100778.59
2018-03-22T12:53:26.233Z,100784.25
2018-03-22T12:55:55.341Z,100770.80
2018-03-22T12:58:24.452Z,100776.77
2018-03-22T13:00:54.304Z,100757.75
2018-03-22T13:03:23.429Z,100761.11
2018-03-22T13:05:52.542Z,100748.83
2018-03-22T13:08:21.684Z,100739.45
2018-03-22T13:10:50.829Z,100737.63
2018-03-22T13:13:19.942Z,100738.83
2018-03-22T13:15:49.834Z,100739.99
2018-03-22T13:18:19.416Z,100742.05
2018-03-22T13:20:48.535Z,100741.11
2018-03-22T13:23:17.663Z,100736.52
2018-03-22T13:25:47.562Z,100749.73
2018-03-22T13:28:16.664Z,100739.09
2018-03-22T13:30:45.786Z,100738.57
2018-03-22T13:33:14.913Z,100729.63
2018-03-22T13:35:45.043Z,100720.71
2018-03-22T13:38:14.159Z,100728.45
2018-03-22T13:40:43.307Z,100716.19
2018-03-22T13:43:12.403Z,100728.25
2018-03-22T13:45:41.522Z,100718.95
2018-03-22T13:48:10.656Z,100727.67
2018-03-22T13:50:39.775Z,100716.19
2018-03-22T13:53:09.667Z,100717.09
2018-03-22T13:55:39.548Z,100708.44
2018-03-22T13:58:08.670Z,100691.08
2018-03-22T14:00:37.784Z,100698.16
2018-03-22T14:03:07.694Z,100685.73
2018-03-22T14:05:37.575Z,100684.67
2018-03-22T14:08:08.076Z,100686.73
2018-03-22T14:10:37.481Z,100691.64
2018-03-22T14:13:06.582Z,100679.36
2018-03-22T14:15:35.722Z,100679.66
2018-03-22T14:18:04.831Z,100676.55
2018-03-22T14:20:33.947Z,100662.59
2018-03-22T14:23:03.814Z,100663.28
2018-03-22T14:25:33.713Z,100654.74
2018-03-22T14:28:02.802Z,100658.55
2018-03-22T14:30:31.968Z,100658.25
2018-03-22T14:33:01.841Z,100650.73
2018-03-22T14:35:30.955Z,100656.08
2018-03-22T14:38:00.060Z,100652.89
2018-03-22T14:40:29.986Z,100653.82
2018-03-22T14:42:59.862Z,100649.17
2018-03-22T14:45:28.974Z,100645.33
2018-03-22T14:47:58.094Z,100637.97
2018-03-22T14:50:27.995Z,100633.37
2018-03-22T14:52:57.890Z,100628.17
2018-03-22T14:55:27.090Z,100624.34
2018-03-22T14:57:56.209Z,100615.53
2018-03-22T15:00:26.092Z,100626.64
2018-03-22T15:02:55.208Z,100620.82
2018-03-22T15:05:24.315Z,100624.18
2018-03-22T15:07:56.253Z,100619.48
2018-03-22T15:10:25.454Z,100624.55
2018-03-22T15:12:54.534Z,100611.66
2018-03-22T15:15:23.642Z,100608.64
2018-03-22T15:17:52.760Z,100596.19
2018-03-22T15:20:22.686Z,100595.18
2018-03-22T15:22:52.573Z,100588.30
2018-03-22T15:25:21.686Z,100585.73
2018-03-22T15:27:51.632Z,100590.06
2018-03-22T15:30:20.743Z,100595.88
2018-03-22T15:32:49.883Z,100591.58
2018-03-22T15:35:18.975Z,100589.77
2018-03-22T15:37:48.105Z,100596.17
2018-03-22T15:40:17.221Z,100606.00
2018-03-22T15:42:47.119Z,100605.14
2018-03-22T15:45:16.477Z,100600.10
2018-03-22T15:47:45.621Z,100606.22
2018-03-22T15:50:15.483Z,100604.88
2018-03-22T15:52:45.355Z,100601.84
2018-03-22T15:55:14.463Z,100598.67
2018-03-22T15:57:43.582Z,100601.55
2018-03-22T16:00:12.763Z,100588.05
2018-03-22T16:02:41.881Z,100594.92
2018-03-22T16:05:10.982Z,100593.29
2018-03-22T16:07:40.129Z,100588.66
2018-03-22T16:10:09.234Z,100584.28
2018-03-22T16:12:38.365Z,100590.09
2018-03-22T16:15:07.516Z,100595.09
2018-03-22T16:17:37.414Z,100600.55
2018-03-22T16:20:07.288Z,100596.75
2018-03-22T16:22:36.416Z,100584.36
2018-03-22T16:25:06.312Z,100592.19
2018-03-22T16:27:35.431Z,100585.14
2018-03-22T16:30:05.332Z,100591.25
2018-03-22T16:32:34.455Z,100593.42
2018-03-22T16:35:03.592Z,100594.08
2018-03-22T16:37:32.722Z,100584.09
2018-03-22T16:40:01.851Z,100585.80
2018-03-22T16:42:31.774Z,100581.14
2018-03-22T16:45:01.650Z,100577.92
2018-03-22T16:47:30.758Z,100577.92
2018-03-22T16:50:00.658Z,100581.14
2018-03-22T16:52:29.758Z,100590.55
2018-03-22T16:54:58.887Z,100588.38
2018-03-22T16:57:27.989Z,100589.06
2018-03-22T16:59:57.111Z,100585.38
2018-03-22T17:02:26.245Z,100590.41
2018-03-22T17:04:55.388Z,100584.17
2018-03-22T17:07:24.489Z,100580.38
2018-03-22T17:09:53.659Z,100582.69
2018-03-22T17:12:24.032Z,100584.38
2018-03-22T17:14:53.185Z,100578.63
2018-03-22T17:17:23.047Z,100577.31
2018-03-22T17:19:52.198Z,100573.80
2018-03-22T17:22:21.366Z,100575.94
2018-03-22T17:24:50.470Z,100577.43
2018-03-22T17:27:19.750Z,100574.95
2018-03-22T17:29:48.866Z,100570.44
2018-03-22T17:32:18.750Z,100572.03
2018-03-22T17:34:47.877Z,100574.88
2018-03-22T17:37:17.016Z,100574.64
2018-03-22T17:39:46.125Z,100579.11
2018-03-22T17:42:15.247Z,100579.15
2018-03-22T17:44:44.403Z,100569.87
2018-03-22T17:47:14.183Z,100571.39
2018-03-22T17:49:43.304Z,100568.80
2018-03-22T17:52:12.476Z,100569.83
2018-03-22T17:54:42.363Z,100560.44
2018-03-22T17:57:11.491Z,100561.84
2018-03-22T17:59:41.357Z,100563.02
2018-03-22T18:02:10.525Z,100551.53
2018-03-22T18:04:39.619Z,100559.62
2018-03-22T18:07:08.747Z,100556.31
2018-03-22T18:09:37.870Z,100570.38
2018-03-22T18:12:07.023Z,100567.28
2018-03-22T18:14:36.129Z,100567.45
2018-03-22T18:17:06.375Z,100574.22
2018-03-22T18:19:36.527Z,100578.12
2018-03-22T18:22:06.447Z,100578.41
2018-03-22T18:24:36.366Z,100581.92
2018-03-22T18:27:06.252Z,100575.61
2018-03-22T18:29:35.397Z,100574.20
2018-03-22T18:32:06.175Z,100572.42
2018-03-22T18:34:35.301Z,100572.59
2018-03-22T18:37:10.406Z,100571.96
2018-03-22T18:39:40.252Z,100575.33
2018-03-22T18:42:10.270Z,100568.80
2018-03-22T18:44:40.163Z,100572.80
2018-03-22T18:47:09.277Z,100574.83
2018-03-22T18:49:39.166Z,100574.15
2018-03-22T18:52:08.310Z,100575.85
2018-03-22T18:54:38.260Z,100566.88
2018-03-22T18:57:07.394Z,100564.95
2018-03-22T18:59:36.530Z,100565.31
2018-03-22T19:02:05.664Z,100567.44
2018-03-22T19:04:34.787Z,100573.27
2018-03-22T19:07:03.926Z,100573.83
2018-03-22T19:09:33.010Z,100570.04
2018-03-22T19:12:02.163Z,100571.61
2018-03-22T19:14:31.272Z,100569.08
2018-03-22T19:17:01.185Z,100566.77
2018-03-22T19:19:30.314Z,100565.14
2018-03-22T19:21:59.410Z,100557.09
2018-03-22T19:24:28.581Z,100559.61
2018-03-22T19:26:57.715Z,100560.98
2018-03-22T19:29:26.860Z,100558.90
2018-03-22T19:31:55.999Z,100564.33
2018-03-22T19:34:25.885Z,100563.80
2018-03-22T19:36:55.791Z,100559.20
2018-03-22T19:39:24.961Z,100557.53
2018-03-22T19:41:54.117Z,100560.94
2018-03-22T19:44:24.125Z,100555.27
2018-03-22T19:46:53.202Z,100557.71
2018-03-22T19:49:24.136Z,100550.72
2018-03-22T19:51:53.258Z,100551.31
2018-03-22T19:54:22.378Z,100550.67
2018-03-22T19:56:51.527Z,100540.49
2018-03-22T19:59:20.649Z,100545.47
2018-03-22T20:01:50.573Z,100543.94
2018-03-22T20:04:19.712Z,100543.67
2018-03-22T20:06:49.539Z,100537.94
2018-03-22T20:09:18.656Z,100543.28
2018-03-22T20:11:48.551Z,100544.66
2018-03-22T20:14:17.723Z,100534.66
2018-03-22T20:16:47.122Z,100529.59
2018-03-22T20:19:16.226Z,100532.84
2018-03-22T20:21:45.364Z,100531.26
2018-03-22T20:24:15.247Z,100530.72
2018-03-22T20:26:44.401Z,100528.19
2018-03-22T20:29:13.500Z,100529.42
2018-03-22T20:31:42.619Z,100532.33
2018-03-22T20:34:11.738Z,100524.28
2018-03-22T20:36:40.880Z,100532.52
2018-03-22T20:39:09.989Z,100527.54
2018-03-22T20:41:39.897Z,100530.26
2018-03-22T20:44:09.065Z,100526.85
2018-03-22T20:46:38.954Z,100527.92
2018-03-22T20:49:08.086Z,100528.13
2018-03-22T20:51:37.989Z,100523.83
2018-03-22T20:54:07.101Z,100524.77
2018-03-22T20:56:36.232Z,100525.73
2018-03-22T20:59:05.802Z,100521.27
2018-03-22T21:01:35.697Z,100516.39
2018-03-22T21:04:05.792Z,100517.38
2018-03-22T21:06:34.905Z,100522.31
2018-03-22T21:09:04.052Z,100517.89
2018-03-22T21:11:33.181Z,100513.77
2018-03-22T21:14:02.318Z,100517.45
2018-03-22T21:16:32.246Z,100510.45
2018-03-22T21:19:02.143Z,100504.34
2018-03-22T21:21:32.071Z,100504.80
2018-03-22T21:24:01.928Z,100494.20
2018-03-22T21:26:31.070Z,100495.33
2018-03-22T21:29:00.970Z,100499.03
2018-03-22T21:31:30.156Z,100498.00
2018-03-22T21:33:59.317Z,100493.42
2018-03-22T21:36:28.424Z,100499.50
2018-03-22T21:38:57.626Z,100499.20
2018-03-22T21:41:26.677Z,100492.34
2018-03-22T21:44:13.380Z,100487.97
2018-03-22T21:46:43.326Z,100492.39
2018-03-22T21:49:12.435Z,100488.23
2018-03-22T21:51:41.547Z,100484.09
2018-03-22T21:54:10.679Z,100486.22
2018-03-22T21:56:40.569Z,100491.33
2018-03-22T21:59:09.672Z,100483.09
2018-03-22T22:01:40.410Z,100475.16
2018-03-22T22:04:09.555Z,100467.88
2018-03-22T22:06:38.659Z,100469.44
2018-03-22T22:09:07.802Z,100473.50
2018-03-22T22:11:36.921Z,100462.08
2018-03-22T22:14:06.802Z,100461.61
2018-03-22T22:16:35.948Z,100459.38
2018-03-22T22:19:05.999Z,100458.44
2018-03-22T22:21:35.932Z,100454.92
2018-03-22T22:24:06.785Z,100459.14
2018-03-22T22:26:35.957Z,100452.48
2018-03-22T22:29:06.830Z,100450.63
2018-03-22T22:31:36.708Z,100452.02
2018-03-22T22:34:06.054Z,100445.79
2018-03-22T22:36:35.954Z,100444.55
2018-03-22T22:39:06.858Z,100446.25
2018-03-22T22:41:35.995Z,100442.34
2018-03-22T22:44:06.796Z,100437.81
2018-03-22T22:46:35.906Z,100430.69
2018-03-22T22:49:06.835Z,100428.56
2018-03-22T22:51:35.934Z,100426.47
2018-03-22T22:54:06.879Z,100425.08
2018-03-22T22:56:36.388Z,100428.02
2018-03-22T22:59:06.422Z,100418.69
2018-03-22T23:01:35.615Z,100417.80
2018-03-22T23:04:04.732Z,100413.81
2018-03-22T23:06:33.856Z,100422.14
2018-03-22T23:09:02.981Z,100417.11
2018-03-22T23:11:32.109Z,100413.05
2018-03-22T23:14:01.222Z,100413.70
2018-03-22T23:16:30.360Z,100419.34
2018-03-22T23:18:59.483Z,100410.80
2018-03-22T23:21:28.629Z,100406.45
2018-03-22T23:23:57.742Z,100400.85
2018-03-22T23:26:26.981Z,100400.81
2018-03-22T23:28:56.093Z,100399.80
2018-03-22T23:31:25.251Z,100398.52
2018-03-22T23:33:54.347Z,100399.73
2018-03-22T23:36:23.480Z,100400.11
2018-03-22T23:38:53.358Z,100403.70
2018-03-22T23:41:22.473Z,100389.15
2018-03-22T23:43:52.361Z,100399.47
2018-03-22T23:46:21.509Z,100401.22
2018-03-22T23:48:51.401Z,100394.55
2018-03-22T23:51:20.536Z,100390.59
2018-03-22T23:53:49.630Z,100387.73
2018-03-22T23:56:18.757Z,100393.39
2018-03-22T23:58:47.862Z,100387.20
